Terminal Aerodrome Forecast
Issued by NWS Brownsville, TX

Home | Current Version | Previous Version | Text Only | Print | Product List | Glossary On
Versions: 1 2 3 4 5 6 7 8 9 10 11 12 13 14 15 16 17 18 19 20 21 22 23 24 25
000
FTUS44 KBRO 212300
TAFMFE
TAF
KMFE 212320Z 2200/2224 07005KT P6SM OVC015
     FM220400 VRB04KT P6SM OVC015
     FM221000 18005KT 3SM BR OVC007
     FM221500 18008KT P6SM SCT015=

USA.gov is the U.S. government's official web portal to all federal, state and local government web resources and services.